createdAt,value
2019-02-09T00:00:51.030Z,7.48
2019-02-09T00:01:51.017Z,7.47
2019-02-09T00:02:51.003Z,7.50
2019-02-09T00:03:50.990Z,7.48
2019-02-09T00:04:50.977Z,7.53
2019-02-09T00:05:50.965Z,7.51
2019-02-09T00:06:50.950Z,7.60
2019-02-09T00:07:50.940Z,7.48
2019-02-09T00:08:50.925Z,7.56
2019-02-09T00:09:50.918Z,7.58
2019-02-09T00:10:50.901Z,7.54
2019-02-09T00:11:50.886Z,7.60
2019-02-09T00:12:50.875Z,7.50
2019-02-09T00:13:50.860Z,7.63
2019-02-09T00:14:50.849Z,7.50
2019-02-09T00:15:50.833Z,7.54
2019-02-09T00:16:50.820Z,7.56
2019-02-09T00:17:50.810Z,7.56
2019-02-09T00:18:50.794Z,7.54
2019-02-09T00:19:50.781Z,7.60
2019-02-09T00:20:50.768Z,7.54
2019-02-09T00:21:50.755Z,7.56
2019-02-09T00:22:50.742Z,7.54
2019-02-09T00:23:50.728Z,7.58
2019-02-09T00:24:50.721Z,7.57
2019-02-09T00:25:50.702Z,7.48
2019-02-09T00:26:50.688Z,7.54
2019-02-09T00:27:50.676Z,7.47
2019-02-09T00:28:50.664Z,7.61
2019-02-09T00:29:50.650Z,7.63
2019-02-09T00:30:50.636Z,7.51
2019-02-09T00:31:50.623Z,7.70
2019-02-09T00:32:50.611Z,7.67
2019-02-09T00:33:50.597Z,7.56
2019-02-09T00:34:50.583Z,7.66
2019-02-09T00:35:50.570Z,7.51
2019-02-09T00:36:50.558Z,7.57
2019-02-09T00:37:50.547Z,7.50
2019-02-09T00:38:50.530Z,7.51
2019-02-09T00:39:50.518Z,7.57
2019-02-09T00:40:50.506Z,7.63
2019-02-09T00:41:50.492Z,7.54
2019-02-09T00:42:50.481Z,7.67
2019-02-09T00:43:50.465Z,7.63
2019-02-09T00:44:50.452Z,7.67
2019-02-09T00:45:50.439Z,7.70
2019-02-09T00:46:50.426Z,7.67
2019-02-09T00:47:50.415Z,7.79
2019-02-09T00:48:50.402Z,7.80
2019-02-09T00:49:50.387Z,7.76
2019-02-09T00:50:50.374Z,7.90
2019-02-09T00:51:50.362Z,7.83
2019-02-09T00:52:50.361Z,7.90
2019-02-09T00:53:50.336Z,7.94
2019-02-09T00:54:50.323Z,7.91
2019-02-09T00:55:50.309Z,7.93
2019-02-09T00:56:50.296Z,7.95
2019-02-09T00:57:50.283Z,7.98
2019-02-09T00:58:50.270Z,7.97
2019-02-09T00:59:54.285Z,7.97
2019-02-09T01:00:50.246Z,8.00
2019-02-09T01:01:50.235Z,8.03
2019-02-09T01:02:50.219Z,8.06
2019-02-09T01:03:50.207Z,7.97
2019-02-09T01:04:50.197Z,8.06
2019-02-09T01:05:50.182Z,8.05
2019-02-09T01:06:50.168Z,8.06
2019-02-09T01:07:50.158Z,8.03
2019-02-09T01:08:50.146Z,8.01
2019-02-09T01:09:50.131Z,8.03
2019-02-09T01:10:50.118Z,7.94
2019-02-09T01:11:50.105Z,7.94
2019-02-09T01:12:50.093Z,7.94
2019-02-09T01:13:50.080Z,7.93
2019-02-09T01:14:50.067Z,7.94
2019-02-09T01:15:50.054Z,8.01
2019-02-09T01:16:50.042Z,7.97
2019-02-09T01:17:50.029Z,7.98
2019-02-09T01:18:50.016Z,7.94
2019-02-09T01:19:50.003Z,7.91
2019-02-09T01:20:49.990Z,8.06
2019-02-09T01:21:49.980Z,7.88
2019-02-09T01:22:49.964Z,8.01
2019-02-09T01:23:49.951Z,7.95
2019-02-09T01:24:49.939Z,7.95
2019-02-09T01:25:49.927Z,7.90
2019-02-09T01:26:49.912Z,7.94
2019-02-09T01:27:49.900Z,8.03
2019-02-09T01:28:49.887Z,7.94
2019-02-09T01:29:49.879Z,7.93
2019-02-09T01:30:49.862Z,8.03
2019-02-09T01:31:49.848Z,8.00
2019-02-09T01:32:49.835Z,8.00
2019-02-09T01:33:49.823Z,7.98
2019-02-09T01:34:49.810Z,8.06
2019-02-09T01:35:49.797Z,7.91
2019-02-09T01:36:49.785Z,8.00
2019-02-09T01:37:49.773Z,7.97
2019-02-09T01:38:49.761Z,8.05
2019-02-09T01:39:49.746Z,8.06
2019-02-09T01:40:49.733Z,8.06
2019-02-09T01:41:49.720Z,8.13
2019-02-09T01:42:49.707Z,8.09
2019-02-09T01:43:49.695Z,8.16
2019-02-09T01:44:49.683Z,8.01
2019-02-09T01:45:49.670Z,8.03
2019-02-09T01:46:49.656Z,8.05
2019-02-09T01:47:49.645Z,7.93
2019-02-09T01:48:49.631Z,7.82
2019-02-09T01:49:49.619Z,7.87
2019-02-09T01:50:49.613Z,7.87
2019-02-09T01:51:49.592Z,7.80
2019-02-09T01:52:49.581Z,7.85
2019-02-09T01:53:49.567Z,7.77
2019-02-09T01:54:49.552Z,7.72
2019-02-09T01:55:49.541Z,7.77
2019-02-09T01:56:49.527Z,7.83
2019-02-09T01:57:49.514Z,7.75
2019-02-09T01:58:49.500Z,7.79
2019-02-09T01:59:49.488Z,7.83
2019-02-09T02:00:49.475Z,7.82
2019-02-09T02:01:49.462Z,7.82
2019-02-09T02:02:49.448Z,7.76
2019-02-09T02:03:49.435Z,7.79
2019-02-09T02:04:49.423Z,7.77
2019-02-09T02:05:49.412Z,7.82
2019-02-09T02:06:49.396Z,7.79
2019-02-09T02:07:49.384Z,7.70
2019-02-09T02:08:49.375Z,7.79
2019-02-09T02:09:49.360Z,7.79
2019-02-09T02:10:49.345Z,7.79
2019-02-09T02:11:49.332Z,7.69
2019-02-09T02:12:49.319Z,7.67
2019-02-09T02:13:49.307Z,7.67
2019-02-09T02:14:49.293Z,7.69
2019-02-09T02:15:49.280Z,7.69
2019-02-09T02:16:49.268Z,7.56
2019-02-09T02:17:49.255Z,7.69
2019-02-09T02:18:49.242Z,7.57
2019-02-09T02:19:49.229Z,7.53
2019-02-09T02:20:49.216Z,7.61
2019-02-09T02:21:49.257Z,7.54
2019-02-09T02:22:49.189Z,7.69
2019-02-09T02:23:49.181Z,7.66
2019-02-09T02:24:49.165Z,7.61
2019-02-09T02:25:49.153Z,7.67
2019-02-09T02:26:49.139Z,7.66
2019-02-09T02:27:49.131Z,7.69
2019-02-09T02:28:49.115Z,7.79
2019-02-09T02:29:49.102Z,7.72
2019-02-09T02:30:49.089Z,7.79
2019-02-09T02:31:49.077Z,7.73
2019-02-09T02:32:51.488Z,7.76
2019-02-09T02:33:49.051Z,7.72
2019-02-09T02:34:49.038Z,7.70
2019-02-09T02:35:49.032Z,7.79
2019-02-09T02:36:49.014Z,7.75
2019-02-09T02:37:49.002Z,7.69
2019-02-09T02:38:48.987Z,7.73
2019-02-09T02:39:48.975Z,7.79
2019-02-09T02:40:48.961Z,7.80
2019-02-09T02:41:48.949Z,7.80
2019-02-09T02:42:48.935Z,7.77
2019-02-09T02:43:48.923Z,7.83
2019-02-09T02:44:48.911Z,7.70
2019-02-09T02:45:48.898Z,7.77
2019-02-09T02:46:48.884Z,7.88
2019-02-09T02:47:48.871Z,7.87
2019-02-09T02:48:48.860Z,7.93
2019-02-09T02:49:48.848Z,7.94
2019-02-09T02:50:48.833Z,7.95
2019-02-09T02:51:48.825Z,7.95
2019-02-09T02:52:48.812Z,7.95
2019-02-09T02:53:48.796Z,8.00
2019-02-09T02:54:48.782Z,8.06
2019-02-09T02:55:48.770Z,8.13
2019-02-09T02:56:48.764Z,8.15
2019-02-09T02:57:48.745Z,8.15
2019-02-09T02:58:48.735Z,8.09
2019-02-09T02:59:48.722Z,8.08
2019-02-09T03:00:48.706Z,8.10
2019-02-09T03:01:48.696Z,8.12
2019-02-09T03:02:48.685Z,8.03
2019-02-09T03:03:48.672Z,8.06
2019-02-09T03:04:48.656Z,8.18
2019-02-09T03:05:48.644Z,8.15
2019-02-09T03:06:48.630Z,8.16
2019-02-09T03:07:48.619Z,8.15
2019-02-09T03:08:48.607Z,8.15
2019-02-09T03:09:48.594Z,8.12
2019-02-09T03:10:48.581Z,8.16
2019-02-09T03:11:48.568Z,8.03
2019-02-09T03:12:48.558Z,8.01
2019-02-09T03:13:48.572Z,7.97
2019-02-09T03:14:48.529Z,7.91
2019-02-09T03:15:48.523Z,7.83
2019-02-09T03:16:48.507Z,7.93
2019-02-09T03:17:48.492Z,7.83
2019-02-09T03:18:48.480Z,7.87
2019-02-09T03:19:48.469Z,7.90
2019-02-09T03:20:48.453Z,7.95
2019-02-09T03:21:48.443Z,8.03
2019-02-09T03:22:48.441Z,7.93
2019-02-09T03:23:48.418Z,7.98
2019-02-09T03:24:48.402Z,7.95
2019-02-09T03:25:48.390Z,8.05
2019-02-09T03:26:48.384Z,7.95
2019-02-09T03:27:48.364Z,8.00
2019-02-09T03:28:48.353Z,7.93
2019-02-09T03:29:48.344Z,7.70
2019-02-09T03:30:49.184Z,7.77
2019-02-09T03:31:48.313Z,7.72
2019-02-09T03:32:48.314Z,7.72
2019-02-09T03:33:48.287Z,7.70
2019-02-09T03:34:48.273Z,7.63
2019-02-09T03:35:48.261Z,7.72
2019-02-09T03:36:48.258Z,7.80
2019-02-09T03:37:48.245Z,7.70
2019-02-09T03:38:48.222Z,7.76
2019-02-09T03:39:48.220Z,7.72
2019-02-09T03:40:48.216Z,7.82
2019-02-09T03:41:48.183Z,7.72
2019-02-09T03:42:48.175Z,7.72
2019-02-09T03:43:48.157Z,7.61
2019-02-09T03:44:48.145Z,7.50
2019-02-09T03:45:48.132Z,7.39
2019-02-09T03:46:48.118Z,7.39
2019-02-09T03:47:48.109Z,7.32
2019-02-09T03:48:48.092Z,7.29
2019-02-09T03:49:48.079Z,7.28
2019-02-09T03:50:48.065Z,7.28
2019-02-09T03:51:48.058Z,7.18
2019-02-09T03:52:48.038Z,6.97
2019-02-09T03:53:48.025Z,6.97
2019-02-09T03:54:48.011Z,6.97
2019-02-09T03:55:47.999Z,7.02
2019-02-09T03:56:47.985Z,7.05
2019-02-09T03:57:47.977Z,6.99
2019-02-09T03:58:47.957Z,7.03
2019-02-09T03:59:47.943Z,6.95
2019-02-09T04:00:55.148Z,6.97
2019-02-09T04:01:47.917Z,6.97
2019-02-09T04:02:47.902Z,6.96
2019-02-09T04:03:47.897Z,7.02
2019-02-09T04:04:47.875Z,6.97
2019-02-09T04:05:47.863Z,7.00
2019-02-09T04:06:47.848Z,7.13
2019-02-09T04:07:47.838Z,7.10
2019-02-09T04:08:47.821Z,7.13
2019-02-09T04:09:47.809Z,7.10
2019-02-09T04:10:47.794Z,7.11
2019-02-09T04:11:47.781Z,7.20
2019-02-09T04:12:47.768Z,7.20
2019-02-09T04:13:47.757Z,7.18
2019-02-09T04:14:47.744Z,7.21
2019-02-09T04:15:47.731Z,7.21
2019-02-09T04:16:47.714Z,7.25
2019-02-09T04:17:47.701Z,7.25
2019-02-09T04:18:47.688Z,7.24
2019-02-09T04:19:47.673Z,7.21
2019-02-09T04:20:47.663Z,7.25
2019-02-09T04:21:47.651Z,7.32
2019-02-09T04:22:47.634Z,7.21
2019-02-09T04:23:47.621Z,7.29
2019-02-09T04:24:47.607Z,7.21
2019-02-09T04:25:47.594Z,7.20
2019-02-09T04:26:47.583Z,7.20
2019-02-09T04:27:47.633Z,7.24
2019-02-09T04:28:47.555Z,7.25
2019-02-09T04:29:47.543Z,7.17
2019-02-09T04:30:47.527Z,7.21
2019-02-09T04:31:47.515Z,7.23
2019-02-09T04:32:47.501Z,7.20
2019-02-09T04:33:47.487Z,7.33
2019-02-09T04:34:47.473Z,7.39
2019-02-09T04:35:47.461Z,7.48
2019-02-09T04:36:47.447Z,7.39
2019-02-09T04:37:47.434Z,7.32
2019-02-09T04:38:47.420Z,7.20
2019-02-09T04:39:47.407Z,7.29
2019-02-09T04:40:47.394Z,7.23
2019-02-09T04:41:47.382Z,7.28
2019-02-09T04:42:47.366Z,7.32
2019-02-09T04:43:47.353Z,7.21
2019-02-09T04:44:47.340Z,7.17
2019-02-09T04:45:47.328Z,7.10
2019-02-09T04:46:47.312Z,7.11
2019-02-09T04:47:47.300Z,7.13
2019-02-09T04:48:47.285Z,7.23
2019-02-09T04:49:47.272Z,7.24
2019-02-09T04:50:47.258Z,7.10
2019-02-09T04:51:47.247Z,7.18
2019-02-09T04:52:47.233Z,7.20
2019-02-09T04:53:47.218Z,7.10
2019-02-09T04:54:47.204Z,7.21
2019-02-09T04:55:47.191Z,7.18
2019-02-09T04:56:47.179Z,7.13
2019-02-09T04:57:47.164Z,7.07
2019-02-09T04:58:47.150Z,7.11
2019-02-09T04:59:47.137Z,7.18
2019-02-09T05:00:47.124Z,7.21
2019-02-09T05:01:47.111Z,7.28
2019-02-09T05:02:47.102Z,7.23
2019-02-09T05:03:47.084Z,7.28
2019-02-09T05:04:47.074Z,7.20
2019-02-09T05:05:47.058Z,7.35
2019-02-09T05:06:47.044Z,7.38
2019-02-09T05:07:47.030Z,7.39
2019-02-09T05:08:47.021Z,7.39
2019-02-09T05:09:47.008Z,7.35
2019-02-09T05:10:46.990Z,7.38
2019-02-09T05:11:46.977Z,7.25
2019-02-09T05:12:46.963Z,7.33
2019-02-09T05:13:46.953Z,7.33
2019-02-09T05:14:46.938Z,7.33
2019-02-09T05:15:46.925Z,7.35
2019-02-09T05:16:46.911Z,7.29
2019-02-09T05:17:46.898Z,7.29
2019-02-09T05:18:46.884Z,7.21
2019-02-09T05:19:46.876Z,7.24
2019-02-09T05:20:46.858Z,7.20
2019-02-09T05:21:46.846Z,7.18
2019-02-09T05:22:46.831Z,7.15
2019-02-09T05:23:46.818Z,7.13
2019-02-09T05:24:46.805Z,7.15
2019-02-09T05:25:46.793Z,7.00
2019-02-09T05:26:46.777Z,7.06
2019-02-09T05:27:46.765Z,7.00
2019-02-09T05:28:46.753Z,6.99
2019-02-09T05:29:46.737Z,6.99
2019-02-09T05:30:46.723Z,6.99
2019-02-09T05:31:46.710Z,6.97
2019-02-09T05:32:46.696Z,7.00
2019-02-09T05:33:46.682Z,7.00
2019-02-09T05:34:46.669Z,7.02
2019-02-09T05:35:46.654Z,6.97
2019-02-09T05:36:46.641Z,6.95
2019-02-09T05:37:46.628Z,6.99
2019-02-09T05:38:46.613Z,6.82
2019-02-09T05:39:46.607Z,7.03
2019-02-09T05:40:46.588Z,7.00
2019-02-09T05:41:46.573Z,7.05
2019-02-09T05:42:46.559Z,7.02
2019-02-09T05:43:46.546Z,6.93
2019-02-09T05:44:46.535Z,6.99
2019-02-09T05:45:46.519Z,6.95
2019-02-09T05:46:46.505Z,6.99
2019-02-09T05:47:46.492Z,7.07
2019-02-09T05:48:46.478Z,7.14
2019-02-09T05:49:46.465Z,7.17
2019-02-09T05:50:46.451Z,7.17
2019-02-09T05:51:46.438Z,7.20
2019-02-09T05:52:46.426Z,7.18
2019-02-09T05:53:46.412Z,7.21
2019-02-09T05:54:46.399Z,7.25
2019-02-09T05:55:46.387Z,7.33
2019-02-09T05:56:46.371Z,7.25
2019-02-09T05:57:46.363Z,7.20
2019-02-09T05:58:46.344Z,7.24
2019-02-09T05:59:46.332Z,7.23
2019-02-09T06:00:46.319Z,7.20
2019-02-09T06:01:46.307Z,7.29
2019-02-09T06:02:46.292Z,7.32
2019-02-09T06:03:46.279Z,7.32
2019-02-09T06:04:46.270Z,7.28
2019-02-09T06:05:46.254Z,7.25
2019-02-09T06:06:46.240Z,7.21
2019-02-09T06:07:46.229Z,7.31
2019-02-09T06:08:46.214Z,7.33
2019-02-09T06:09:46.201Z,7.29
2019-02-09T06:10:46.189Z,7.36
2019-02-09T06:11:46.175Z,7.36
2019-02-09T06:12:46.162Z,7.45
2019-02-09T06:13:46.150Z,7.53
2019-02-09T06:14:46.136Z,7.60
2019-02-09T06:15:46.123Z,7.57
2019-02-09T06:16:46.111Z,7.54
2019-02-09T06:17:46.149Z,7.39
2019-02-09T06:18:46.084Z,7.51
2019-02-09T06:19:46.071Z,7.48
2019-02-09T06:20:46.060Z,7.45
2019-02-09T06:21:46.046Z,7.53
2019-02-09T06:22:46.038Z,7.60
2019-02-09T06:23:46.019Z,7.56
2019-02-09T06:24:46.007Z,7.67
2019-02-09T06:25:45.996Z,7.53
2019-02-09T06:26:45.980Z,7.53
2019-02-09T06:27:45.967Z,7.56
2019-02-09T06:28:45.954Z,7.54
2019-02-09T06:29:45.942Z,7.63
2019-02-09T06:30:45.929Z,7.69
2019-02-09T06:31:45.915Z,7.67
2019-02-09T06:32:45.903Z,7.72
2019-02-09T06:33:45.890Z,7.61
2019-02-09T06:34:45.877Z,7.63
2019-02-09T06:35:45.865Z,7.70
2019-02-09T06:36:45.851Z,7.79
2019-02-09T06:37:45.838Z,7.75
2019-02-09T06:38:45.824Z,7.88
2019-02-09T06:39:45.812Z,7.88
2019-02-09T06:40:45.807Z,7.90
2019-02-09T06:41:45.793Z,7.82
2019-02-09T06:42:45.773Z,7.79
2019-02-09T06:43:45.760Z,7.79
2019-02-09T06:44:45.747Z,7.83
2019-02-09T06:45:45.734Z,7.76
2019-02-09T06:46:45.720Z,7.76
2019-02-09T06:47:45.707Z,7.83
2019-02-09T06:48:45.698Z,7.87
2019-02-09T06:49:45.682Z,7.90
2019-02-09T06:50:45.670Z,7.83
2019-02-09T06:51:45.656Z,7.75
2019-02-09T06:52:45.643Z,7.87
2019-02-09T06:53:45.630Z,7.80
2019-02-09T06:54:45.617Z,7.85
2019-02-09T06:55:45.603Z,7.80
2019-02-09T06:56:45.590Z,7.87
2019-02-09T06:57:45.577Z,7.93
2019-02-09T06:58:45.563Z,7.85
2019-02-09T06:59:45.550Z,7.85
2019-02-09T07:00:45.577Z,7.85
2019-02-09T07:01:48.757Z,7.87
2019-02-09T07:02:45.512Z,7.90
2019-02-09T07:03:45.499Z,7.93
2019-02-09T07:04:45.486Z,7.91
2019-02-09T07:05:45.473Z,8.01
2019-02-09T07:06:45.459Z,8.01
2019-02-09T07:07:45.447Z,8.05
2019-02-09T07:08:45.434Z,8.03
2019-02-09T07:09:45.422Z,8.10
2019-02-09T07:10:45.408Z,7.98
2019-02-09T07:11:45.395Z,8.19
2019-02-09T07:12:45.383Z,8.18
2019-02-09T07:13:45.370Z,8.16
2019-02-09T07:14:45.359Z,8.20
2019-02-09T07:15:45.344Z,8.16
2019-02-09T07:16:45.332Z,8.24
2019-02-09T07:17:45.320Z,8.23
2019-02-09T07:18:45.306Z,8.34
2019-02-09T07:19:45.293Z,8.30
2019-02-09T07:20:45.281Z,8.34
2019-02-09T07:21:45.269Z,8.24
2019-02-09T07:22:45.255Z,8.19
2019-02-09T07:23:45.246Z,8.19
2019-02-09T07:24:45.231Z,8.26
2019-02-09T07:25:45.221Z,8.15
2019-02-09T07:26:45.205Z,8.16
2019-02-09T07:27:45.196Z,8.34
2019-02-09T07:28:45.180Z,8.30
2019-02-09T07:29:45.168Z,8.26
2019-02-09T07:30:45.154Z,8.28
2019-02-09T07:31:45.145Z,8.31
2019-02-09T07:32:45.131Z,8.27
2019-02-09T07:33:45.127Z,8.27
2019-02-09T07:34:45.109Z,8.26
2019-02-09T07:35:45.092Z,8.27
2019-02-09T07:36:45.080Z,8.34
2019-02-09T07:37:45.069Z,8.30
2019-02-09T07:38:45.057Z,8.30
2019-02-09T07:39:45.042Z,8.28
2019-02-09T07:40:45.029Z,8.28
2019-02-09T07:41:45.021Z,8.33
2019-02-09T07:42:45.007Z,8.34
2019-02-09T07:43:44.992Z,8.31
2019-02-09T07:44:44.981Z,8.34
2019-02-09T07:45:44.969Z,8.30
2019-02-09T07:46:44.954Z,8.20
2019-02-09T07:47:44.942Z,8.20
2019-02-09T07:48:44.934Z,8.16
2019-02-09T07:49:44.917Z,8.20
2019-02-09T07:50:44.909Z,8.18
2019-02-09T07:51:44.892Z,8.19
2019-02-09T07:52:44.881Z,8.16
2019-02-09T07:53:44.870Z,8.19
2019-02-09T07:54:44.855Z,8.33
2019-02-09T07:55:44.842Z,8.20
2019-02-09T07:56:44.831Z,8.19
2019-02-09T07:57:44.817Z,8.15
2019-02-09T07:58:44.803Z,8.18
2019-02-09T07:59:44.791Z,8.18
2019-02-09T08:00:44.779Z,8.36
2019-02-09T08:01:44.776Z,8.34
2019-02-09T08:02:44.753Z,8.24
2019-02-09T08:03:44.743Z,8.18
2019-02-09T08:04:44.729Z,8.28
2019-02-09T08:05:44.716Z,8.19
2019-02-09T08:06:44.703Z,8.10
2019-02-09T08:07:44.691Z,8.13
2019-02-09T08:08:44.678Z,8.24
2019-02-09T08:09:44.667Z,8.23
2019-02-09T08:10:44.652Z,8.27
2019-02-09T08:11:44.640Z,8.24
2019-02-09T08:12:44.628Z,8.26
2019-02-09T08:13:44.620Z,8.20
2019-02-09T08:14:44.602Z,8.24
2019-02-09T08:15:44.590Z,8.20
2019-02-09T08:16:44.577Z,8.20
2019-02-09T08:17:44.566Z,8.19
2019-02-09T08:18:44.552Z,8.19
2019-02-09T08:19:44.539Z,8.20
2019-02-09T08:20:44.527Z,8.27
2019-02-09T08:21:44.515Z,8.42
2019-02-09T08:22:44.502Z,8.44
2019-02-09T08:23:44.490Z,8.45
2019-02-09T08:24:44.478Z,8.42
2019-02-09T08:25:44.466Z,8.37
2019-02-09T08:26:44.453Z,8.41
2019-02-09T08:27:44.443Z,8.48
2019-02-09T08:28:44.429Z,8.51
2019-02-09T08:29:44.418Z,8.58
2019-02-09T08:30:44.404Z,8.55
2019-02-09T08:31:44.393Z,8.52
2019-02-09T08:32:44.383Z,8.63
2019-02-09T08:33:44.370Z,8.73
2019-02-09T08:34:44.357Z,8.67
2019-02-09T08:35:44.346Z,8.66
2019-02-09T08:36:44.334Z,8.67
2019-02-09T08:37:44.359Z,8.61
2019-02-09T08:38:44.311Z,8.66
2019-02-09T08:39:44.300Z,8.60
2019-02-09T08:40:44.288Z,8.55
2019-02-09T08:41:44.276Z,8.56
2019-02-09T08:42:44.265Z,8.51
2019-02-09T08:43:44.252Z,8.52
2019-02-09T08:44:44.240Z,8.51
2019-02-09T08:45:44.234Z,8.52
2019-02-09T08:46:44.216Z,8.55
2019-02-09T08:47:44.204Z,8.56
2019-02-09T08:48:44.192Z,8.45
2019-02-09T08:49:44.184Z,8.48
2019-02-09T08:50:44.171Z,8.49
2019-02-09T08:51:44.158Z,8.52
2019-02-09T08:52:44.143Z,8.51
2019-02-09T08:53:44.132Z,8.49
2019-02-09T08:54:44.119Z,8.55
2019-02-09T08:55:44.107Z,8.52
2019-02-09T08:56:44.095Z,8.56
2019-02-09T08:57:44.084Z,8.52
2019-02-09T08:58:44.071Z,8.58
2019-02-09T08:59:44.059Z,8.52
2019-02-09T09:00:44.048Z,8.55
2019-02-09T09:01:44.037Z,8.51
2019-02-09T09:02:44.022Z,8.52
2019-02-09T09:03:44.010Z,8.44
2019-02-09T09:04:43.999Z,8.46
2019-02-09T09:05:43.989Z,8.46
2019-02-09T09:06:43.974Z,8.41
2019-02-09T09:07:43.962Z,8.41
2019-02-09T09:08:43.951Z,8.51
2019-02-09T09:09:43.943Z,8.45
2019-02-09T09:10:43.925Z,8.53
2019-02-09T09:11:43.914Z,8.55
2019-02-09T09:12:43.902Z,8.70
2019-02-09T09:13:43.890Z,8.70
2019-02-09T09:14:43.877Z,8.78
2019-02-09T09:15:43.865Z,8.78
2019-02-09T09:16:43.854Z,8.82
2019-02-09T09:17:43.842Z,8.88
2019-02-09T09:18:43.829Z,8.91
2019-02-09T09:19:43.817Z,8.85
2019-02-09T09:20:43.807Z,8.87
2019-02-09T09:21:43.795Z,8.95
2019-02-09T09:22:43.782Z,8.97
2019-02-09T09:23:43.772Z,8.89
2019-02-09T09:24:43.760Z,8.91
2019-02-09T09:25:43.749Z,8.92
2019-02-09T09:26:43.737Z,8.89
2019-02-09T09:27:43.725Z,8.89
2019-02-09T09:28:43.713Z,8.89
2019-02-09T09:29:43.702Z,8.88
2019-02-09T09:30:43.690Z,8.88
2019-02-09T09:31:43.679Z,8.92
2019-02-09T09:32:43.668Z,8.92
2019-02-09T09:33:43.656Z,8.95
2019-02-09T09:34:43.648Z,8.94
2019-02-09T09:35:43.633Z,8.95
2019-02-09T09:36:43.622Z,8.92
2019-02-09T09:37:43.611Z,8.87
2019-02-09T09:38:43.599Z,8.84
2019-02-09T09:39:43.590Z,8.89
2019-02-09T09:40:43.578Z,8.92
2019-02-09T09:41:43.565Z,8.92
2019-02-09T09:42:43.552Z,8.89
2019-02-09T09:43:43.541Z,8.87
2019-02-09T09:44:43.529Z,8.92
2019-02-09T09:45:43.518Z,8.92
2019-02-09T09:46:43.506Z,8.95
2019-02-09T09:47:43.495Z,8.91
2019-02-09T09:48:43.483Z,8.95
2019-02-09T09:49:43.472Z,8.79
2019-02-09T09:50:43.460Z,8.71
2019-02-09T09:51:43.448Z,8.61
2019-02-09T09:52:43.437Z,8.64
2019-02-09T09:53:43.426Z,8.63
2019-02-09T09:54:43.413Z,8.63
2019-02-09T09:55:43.405Z,8.64
2019-02-09T09:56:43.391Z,8.67
2019-02-09T09:57:43.380Z,8.88
2019-02-09T09:58:43.367Z,8.85
2019-02-09T09:59:43.356Z,8.89
2019-02-09T10:00:43.349Z,8.94
2019-02-09T10:01:43.333Z,8.91
2019-02-09T10:02:43.322Z,8.97
2019-02-09T10:03:43.311Z,9.00
2019-02-09T10:04:43.298Z,9.02
2019-02-09T10:05:43.293Z,9.10
2019-02-09T10:06:43.277Z,9.10
2019-02-09T10:07:43.265Z,9.13
2019-02-09T10:08:43.254Z,9.11
2019-02-09T10:09:43.252Z,9.19
2019-02-09T10:10:43.233Z,9.22
2019-02-09T10:11:43.223Z,9.28
2019-02-09T10:12:43.209Z,9.34
2019-02-09T10:13:43.198Z,9.36
2019-02-09T10:14:43.188Z,9.43
2019-02-09T10:15:43.188Z,9.48
2019-02-09T10:16:43.166Z,9.50
2019-02-09T10:17:43.158Z,9.54
2019-02-09T10:18:43.150Z,9.59
2019-02-09T10:19:43.134Z,9.61
2019-02-09T10:20:43.123Z,9.54
2019-02-09T10:21:43.113Z,9.55
2019-02-09T10:22:43.101Z,9.65
2019-02-09T10:23:45.185Z,9.64
2019-02-09T10:24:43.081Z,9.72
2019-02-09T10:25:43.071Z,9.72
2019-02-09T10:26:43.061Z,9.69
2019-02-09T10:27:43.049Z,9.68
2019-02-09T10:28:43.078Z,9.62
2019-02-09T10:29:43.029Z,9.55
2019-02-09T10:30:43.018Z,9.56
2019-02-09T10:31:43.008Z,9.54
2019-02-09T10:32:44.527Z,9.55
2019-02-09T10:33:42.987Z,9.59
2019-02-09T10:34:42.976Z,9.55
2019-02-09T10:35:42.965Z,9.64
2019-02-09T10:36:42.956Z,9.66
2019-02-09T10:37:42.944Z,9.66
2019-02-09T10:38:42.932Z,9.61
2019-02-09T10:39:42.925Z,9.79
2019-02-09T10:40:42.912Z,9.82
2019-02-09T10:41:42.902Z,9.84
2019-02-09T10:42:42.891Z,9.86
2019-02-09T10:43:42.881Z,9.83
2019-02-09T10:44:42.871Z,9.94
2019-02-09T10:45:42.861Z,10.07
2019-02-09T10:46:43.937Z,10.15
2019-02-09T10:47:42.841Z,10.23
2019-02-09T10:48:42.832Z,10.09
2019-02-09T10:49:42.822Z,10.12
2019-02-09T10:50:42.812Z,10.16
2019-02-09T10:51:42.802Z,9.98
2019-02-09T10:52:42.793Z,9.94
2019-02-09T10:53:42.783Z,9.89
2019-02-09T10:54:42.772Z,9.82
2019-02-09T10:55:42.792Z,9.84
2019-02-09T10:56:42.752Z,9.84
2019-02-09T10:57:43.993Z,9.79
2019-02-09T10:58:42.731Z,9.79
2019-02-09T10:59:42.720Z,9.74
2019-02-09T11:00:42.771Z,9.72
2019-02-09T11:01:42.702Z,9.65
2019-02-09T11:02:42.689Z,9.74
2019-02-09T11:03:42.729Z,9.80
2019-02-09T11:04:42.669Z,9.83
2019-02-09T11:05:42.665Z,9.84
2019-02-09T11:06:42.647Z,9.76
2019-02-09T11:07:42.638Z,9.76
2019-02-09T11:08:42.626Z,9.79
2019-02-09T11:09:42.616Z,9.74
2019-02-09T11:10:42.605Z,9.74
2019-02-09T11:11:42.594Z,9.56
2019-02-09T11:12:42.585Z,9.56
2019-02-09T11:13:42.573Z,9.43
2019-02-09T11:14:42.561Z,9.29
2019-02-09T11:15:42.552Z,9.22
2019-02-09T11:16:42.540Z,9.16
2019-02-09T11:17:42.529Z,9.02
2019-02-09T11:18:42.568Z,9.02
2019-02-09T11:19:42.506Z,8.92
2019-02-09T11:20:42.495Z,8.92
2019-02-09T11:21:42.486Z,9.00
2019-02-09T11:22:42.472Z,8.97
2019-02-09T11:23:42.462Z,9.06
2019-02-09T11:24:42.450Z,9.04
2019-02-09T11:25:42.439Z,9.11
2019-02-09T11:26:42.426Z,9.21
2019-02-09T11:27:42.415Z,9.19
2019-02-09T11:28:42.404Z,9.28
2019-02-09T11:29:42.393Z,9.37
2019-02-09T11:30:42.380Z,9.51
2019-02-09T11:31:42.370Z,9.48
2019-02-09T11:32:42.358Z,9.56
2019-02-09T11:33:42.347Z,9.54
2019-02-09T11:34:42.335Z,9.56
2019-02-09T11:35:42.324Z,9.59
2019-02-09T11:36:42.313Z,9.62
2019-02-09T11:37:42.302Z,9.74
2019-02-09T11:38:42.290Z,9.82
2019-02-09T11:39:42.282Z,9.86
2019-02-09T11:40:42.268Z,9.89
2019-02-09T11:41:42.258Z,9.84
2019-02-09T11:42:42.246Z,9.80
2019-02-09T11:43:42.241Z,9.79
2019-02-09T11:44:42.224Z,9.64
2019-02-09T11:45:42.214Z,9.69
2019-02-09T11:46:42.202Z,9.68
2019-02-09T11:47:42.191Z,9.65
2019-02-09T11:48:42.180Z,9.65
2019-02-09T11:49:42.171Z,9.79
2019-02-09T11:50:42.164Z,9.77
2019-02-09T11:51:42.147Z,9.80
2019-02-09T11:52:42.138Z,9.80
2019-02-09T11:53:42.127Z,9.83
2019-02-09T11:54:42.115Z,9.76
2019-02-09T11:55:42.103Z,9.84
2019-02-09T11:56:42.122Z,9.82
2019-02-09T11:57:42.081Z,9.77
2019-02-09T11:58:42.070Z,9.74
2019-02-09T11:59:42.059Z,9.74
2019-02-09T12:00:42.048Z,9.55
2019-02-09T12:01:42.037Z,9.40
2019-02-09T12:02:42.027Z,9.36
2019-02-09T12:03:42.030Z,9.18
2019-02-09T12:04:42.005Z,8.99
2019-02-09T12:05:41.992Z,8.70
2019-02-09T12:06:41.979Z,8.58
2019-02-09T12:07:41.969Z,8.63
2019-02-09T12:08:41.957Z,8.66
2019-02-09T12:09:41.946Z,8.70
2019-02-09T12:10:41.983Z,8.82
2019-02-09T12:11:41.922Z,8.91
2019-02-09T12:12:41.911Z,8.95
2019-02-09T12:13:41.899Z,9.18
2019-02-09T12:14:41.887Z,9.18
2019-02-09T12:15:41.882Z,9.37
2019-02-09T12:16:41.866Z,9.39
2019-02-09T12:17:41.853Z,9.54
2019-02-09T12:18:41.842Z,9.54
2019-02-09T12:19:41.831Z,9.64
2019-02-09T12:20:41.820Z,9.66
2019-02-09T12:21:41.809Z,9.64
2019-02-09T12:22:41.800Z,9.76
2019-02-09T12:23:41.787Z,9.80
2019-02-09T12:24:41.776Z,9.84
2019-02-09T12:25:41.769Z,9.92
2019-02-09T12:26:41.756Z,9.83
2019-02-09T12:27:41.743Z,9.92
2019-02-09T12:28:41.733Z,9.89
2019-02-09T12:29:41.725Z,9.99
2019-02-09T12:30:41.711Z,9.92
2019-02-09T12:31:41.701Z,9.99
2019-02-09T12:32:41.732Z,10.01
2019-02-09T12:33:41.678Z,10.04
2019-02-09T12:34:41.666Z,9.95
2019-02-09T12:35:41.700Z,9.86
2019-02-09T12:36:41.645Z,9.95
2019-02-09T12:37:41.679Z,9.99
2019-02-09T12:38:41.625Z,10.22
2019-02-09T12:39:41.613Z,10.54
2019-02-09T12:40:41.653Z,10.59
2019-02-09T12:41:41.592Z,10.60
2019-02-09T12:42:41.582Z,10.60
2019-02-09T12:43:41.575Z,10.90
2019-02-09T12:44:41.563Z,11.15
2019-02-09T12:45:41.604Z,11.44
2019-02-09T12:46:41.544Z,11.44
2019-02-09T12:47:41.536Z,11.43
2019-02-09T12:48:41.525Z,11.50
2019-02-09T12:49:41.516Z,11.37
2019-02-09T12:50:41.510Z,11.47
2019-02-09T12:51:41.498Z,11.41
2019-02-09T12:52:41.489Z,11.50
2019-02-09T12:53:41.481Z,11.41
2019-02-09T12:54:41.471Z,11.41
2019-02-09T12:55:41.462Z,11.47
2019-02-09T12:56:41.454Z,11.41
2019-02-09T12:57:41.445Z,11.37
2019-02-09T12:58:41.436Z,11.37
2019-02-09T12:59:41.427Z,11.52
2019-02-09T13:00:41.434Z,11.59
2019-02-09T13:01:41.410Z,11.63
2019-02-09T13:02:41.400Z,11.83
2019-02-09T13:03:41.391Z,11.83
2019-02-09T13:04:41.383Z,11.99
2019-02-09T13:05:41.374Z,11.95
2019-02-09T13:06:41.365Z,11.81
2019-02-09T13:07:41.356Z,11.84
2019-02-09T13:08:41.348Z,11.86
2019-02-09T13:09:41.340Z,11.97
2019-02-09T13:10:41.330Z,12.17
2019-02-09T13:11:41.322Z,12.03
2019-02-09T13:12:41.314Z,12.18
2019-02-09T13:13:41.305Z,12.24
2019-02-09T13:14:41.297Z,12.21
2019-02-09T13:15:41.289Z,12.42
2019-02-09T13:16:41.279Z,12.29